createdAt,value
2018-07-04T00:00:27.440Z,26.60
2018-07-04T00:03:00.248Z,26.50
2018-07-04T00:05:32.758Z,26.60
2018-07-04T00:08:05.379Z,26.50
2018-07-04T00:10:38.089Z,26.50
2018-07-04T00:13:10.672Z,26.50
2018-07-04T00:15:43.248Z,26.50
2018-07-04T00:18:15.792Z,26.60
2018-07-04T00:20:48.428Z,26.50
2018-07-04T00:23:21.067Z,26.50
2018-07-04T00:25:53.648Z,26.50
2018-07-04T00:30:53.224Z,26.50
2018-07-04T00:33:25.700Z,26.50
2018-07-04T00:35:58.436Z,26.50
2018-07-04T00:38:31.817Z,26.50
2018-07-04T00:41:04.268Z,26.50
2018-07-04T00:43:36.839Z,26.50
2018-07-04T00:46:09.428Z,26.50
2018-07-04T00:48:42.016Z,26.50
2018-07-04T00:51:14.471Z,26.50
2018-07-04T00:53:47.124Z,26.50
2018-07-04T00:56:19.751Z,26.50
2018-07-04T00:58:52.410Z,26.50
2018-07-04T01:01:25.104Z,26.50
2018-07-04T01:03:57.652Z,26.50
2018-07-04T01:06:30.256Z,26.50
2018-07-04T01:09:03.159Z,26.50
2018-07-04T01:11:35.654Z,26.50
2018-07-04T01:14:08.336Z,26.50
2018-07-04T01:16:40.900Z,26.50
2018-07-04T01:19:13.489Z,26.50
2018-07-04T01:21:46.087Z,26.50
2018-07-04T01:24:18.644Z,26.50
2018-07-04T01:26:51.247Z,26.50
2018-07-04T01:29:24.679Z,26.50
2018-07-04T01:31:57.208Z,26.50
2018-07-04T01:34:29.819Z,26.50
2018-07-04T01:37:02.464Z,26.50
2018-07-04T01:39:35.021Z,26.50
2018-07-04T01:42:07.588Z,26.50
2018-07-04T01:44:40.195Z,26.50
2018-07-04T01:47:12.855Z,26.40
2018-07-04T01:49:45.436Z,26.50
2018-07-04T01:52:18.028Z,26.50
2018-07-04T01:54:50.583Z,26.50
2018-07-04T01:57:23.300Z,26.50
2018-07-04T01:59:55.860Z,26.50
2018-07-04T02:02:28.512Z,26.50
2018-07-04T02:05:01.044Z,26.50
2018-07-04T02:07:33.692Z,26.50
2018-07-04T02:10:06.303Z,26.50
2018-07-04T02:12:38.855Z,26.50
2018-07-04T02:15:11.498Z,26.40
2018-07-04T02:17:44.160Z,26.40
2018-07-04T02:20:16.700Z,26.50
2018-07-04T02:22:49.328Z,26.40
2018-07-04T02:25:21.879Z,26.40
2018-07-04T02:32:48.348Z,26.50
2018-07-04T02:35:20.881Z,26.40
2018-07-04T02:37:53.457Z,26.50
2018-07-04T02:40:26.138Z,26.40
2018-07-04T02:42:59.264Z,26.50
2018-07-04T02:47:59.021Z,26.40
2018-07-04T02:50:31.652Z,26.50
2018-07-04T02:53:04.274Z,26.40
2018-07-04T02:55:36.835Z,26.40
2018-07-04T03:00:36.559Z,26.40
2018-07-04T03:03:09.057Z,26.40
2018-07-04T03:05:41.644Z,26.50
2018-07-04T03:08:14.207Z,26.40
2018-07-04T03:10:46.796Z,26.40
2018-07-04T03:13:19.392Z,26.40
2018-07-04T03:15:52.000Z,26.40
2018-07-04T03:18:24.583Z,26.40
2018-07-04T03:20:57.193Z,26.40
2018-07-04T03:23:29.802Z,26.40
2018-07-04T03:26:02.433Z,26.40
2018-07-04T03:28:34.951Z,26.40
2018-07-04T03:31:07.669Z,26.40
2018-07-04T03:33:40.267Z,26.40
2018-07-04T03:36:12.816Z,26.40
2018-07-04T03:38:45.397Z,26.40
2018-07-04T03:41:17.947Z,26.40
2018-07-04T03:43:50.860Z,26.40
2018-07-04T03:46:23.524Z,26.40
2018-07-04T03:48:56.089Z,26.40
2018-07-04T03:51:28.667Z,26.40
2018-07-04T03:54:01.330Z,26.40
2018-07-04T03:56:33.883Z,26.40
2018-07-04T03:59:06.423Z,26.40
2018-07-04T04:01:38.972Z,26.40
2018-07-04T04:04:11.536Z,26.40
2018-07-04T04:06:44.079Z,26.40
2018-07-04T04:09:16.661Z,26.40
2018-07-04T04:11:49.251Z,26.40
2018-07-04T04:14:21.856Z,26.40
2018-07-04T04:16:54.443Z,26.40
2018-07-04T04:19:32.700Z,26.40
2018-07-04T04:22:05.149Z,26.40
2018-07-04T04:24:37.710Z,26.40
2018-07-04T04:27:10.497Z,26.40
2018-07-04T04:29:43.091Z,26.40
2018-07-04T04:32:15.716Z,26.40
2018-07-04T04:34:48.292Z,26.40
2018-07-04T04:37:20.952Z,26.40
2018-07-04T04:39:53.539Z,26.40
2018-07-04T04:42:26.116Z,26.40
2018-07-04T04:44:58.658Z,26.40
2018-07-04T04:47:31.255Z,26.40
2018-07-04T04:50:03.813Z,26.40
2018-07-04T04:52:36.388Z,26.40
2018-07-04T04:55:08.938Z,26.50
2018-07-04T04:57:41.596Z,26.40
2018-07-04T05:00:14.195Z,26.40
2018-07-04T05:02:46.812Z,26.40
2018-07-04T05:05:19.968Z,26.40
2018-07-04T05:07:52.557Z,26.40
2018-07-04T05:10:25.157Z,26.40
2018-07-04T05:12:57.859Z,26.40
2018-07-04T05:15:30.440Z,26.40
2018-07-04T05:18:03.116Z,26.40
2018-07-04T05:20:35.536Z,26.40
2018-07-04T05:23:07.984Z,26.40
2018-07-04T05:25:40.588Z,26.30
2018-07-04T05:28:13.162Z,26.30
2018-07-04T05:30:45.839Z,26.30
2018-07-04T05:33:18.371Z,26.30
2018-07-04T05:35:51.807Z,26.30
2018-07-04T05:38:24.618Z,26.30
2018-07-04T05:40:57.198Z,26.30
2018-07-04T05:43:29.758Z,26.30
2018-07-04T05:46:02.354Z,26.30
2018-07-04T05:48:34.967Z,26.30
2018-07-04T05:51:07.572Z,26.30
2018-07-04T05:53:40.163Z,26.30
2018-07-04T05:56:12.767Z,26.30
2018-07-04T05:58:45.347Z,26.30
2018-07-04T06:01:17.934Z,26.30
2018-07-04T06:03:50.504Z,26.30
2018-07-04T06:06:23.024Z,26.20
2018-07-04T06:08:55.835Z,26.30
2018-07-04T06:11:28.475Z,26.30
2018-07-04T06:14:01.129Z,26.30
2018-07-04T06:16:33.755Z,26.30
2018-07-04T06:19:06.353Z,26.30
2018-07-04T06:21:38.958Z,26.30
2018-07-04T06:24:11.608Z,26.30
2018-07-04T06:26:44.150Z,26.30
2018-07-04T06:29:16.747Z,26.30
2018-07-04T06:31:49.308Z,26.30
2018-07-04T06:34:21.955Z,26.30
2018-07-04T06:36:54.608Z,26.30
2018-07-04T06:39:21.199Z,26.30
2018-07-04T06:41:47.587Z,26.30
2018-07-04T06:44:13.964Z,26.30
2018-07-04T06:46:40.373Z,26.30
2018-07-04T06:49:06.836Z,26.30
2018-07-04T06:51:33.240Z,26.30
2018-07-04T06:53:59.615Z,26.30
2018-07-04T06:56:26.020Z,26.30
2018-07-04T06:58:53.091Z,26.40
2018-07-04T07:01:19.536Z,26.40
2018-07-04T07:03:51.980Z,26.40
2018-07-04T07:06:24.516Z,26.40
2018-07-04T07:08:56.928Z,26.40
2018-07-04T07:11:29.516Z,26.40
2018-07-04T07:16:29.282Z,26.40
2018-07-04T07:19:01.712Z,26.40
2018-07-04T07:24:00.995Z,26.40
2018-07-04T07:26:33.551Z,26.40
2018-07-04T07:29:06.104Z,26.40
2018-07-04T07:31:38.727Z,26.40
2018-07-04T07:34:11.374Z,26.40
2018-07-04T07:36:43.867Z,26.40
2018-07-04T07:39:16.371Z,26.40
2018-07-04T07:41:48.946Z,26.40
2018-07-04T07:44:21.516Z,26.50
2018-07-04T07:46:54.215Z,26.50
2018-07-04T07:49:26.850Z,26.50
2018-07-04T07:51:59.431Z,26.50
2018-07-04T07:54:32.072Z,26.50
2018-07-04T07:57:04.632Z,26.60
2018-07-04T07:59:37.397Z,26.60
2018-07-04T08:02:09.829Z,26.60
2018-07-04T08:04:42.379Z,26.60
2018-07-04T08:07:14.974Z,26.60
2018-07-04T08:09:47.536Z,26.60
2018-07-04T08:12:20.072Z,26.60
2018-07-04T08:14:52.587Z,26.60
2018-07-04T08:17:25.463Z,26.60
2018-07-04T08:19:58.007Z,26.70
2018-07-04T08:22:30.583Z,26.70
2018-07-04T08:25:03.195Z,26.60
2018-07-04T08:27:35.844Z,26.70
2018-07-04T08:30:08.444Z,26.70
2018-07-04T08:32:41.052Z,26.70
2018-07-04T08:35:13.602Z,26.70
2018-07-04T08:37:46.216Z,26.70
2018-07-04T08:40:18.795Z,26.70
2018-07-04T08:42:51.611Z,26.70
2018-07-04T08:45:24.151Z,26.70
2018-07-04T08:47:56.846Z,26.70
2018-07-04T08:50:29.402Z,26.70
2018-07-04T08:53:02.408Z,26.70
2018-07-04T08:55:35.064Z,26.70
2018-07-04T08:58:07.695Z,26.70
2018-07-04T09:00:40.255Z,26.70
2018-07-04T09:03:12.847Z,26.70
2018-07-04T09:05:45.379Z,26.70
2018-07-04T09:08:17.967Z,26.70
2018-07-04T09:10:50.663Z,26.80
2018-07-04T09:13:23.207Z,26.70
2018-07-04T09:15:55.724Z,26.80
2018-07-04T09:18:28.279Z,26.80
2018-07-04T09:21:00.876Z,26.80
2018-07-04T09:23:33.507Z,26.80
2018-07-04T09:26:06.139Z,26.80
2018-07-04T09:31:05.826Z,26.80
2018-07-04T09:33:38.408Z,26.80
2018-07-04T09:36:10.932Z,26.80
2018-07-04T09:38:43.499Z,26.90
2018-07-04T09:41:16.044Z,26.90
2018-07-04T09:43:48.692Z,26.90
2018-07-04T09:46:21.323Z,26.90
2018-07-04T09:48:53.976Z,26.90
2018-07-04T09:51:26.541Z,26.90
2018-07-04T09:53:59.228Z,26.90
2018-07-04T09:56:31.819Z,26.90
2018-07-04T09:59:04.534Z,26.90
2018-07-04T10:01:37.019Z,26.90
2018-07-04T10:04:09.552Z,26.90
2018-07-04T10:09:08.824Z,26.90
2018-07-04T10:11:41.415Z,26.90
2018-07-04T10:14:13.996Z,26.90
2018-07-04T10:16:46.560Z,26.80
2018-07-04T10:19:19.250Z,26.80
2018-07-04T10:21:51.819Z,26.90
2018-07-04T10:24:24.412Z,26.90
2018-07-04T10:26:57.860Z,26.90
2018-07-04T10:29:30.548Z,26.90
2018-07-04T10:32:03.114Z,26.90
2018-07-04T10:34:35.658Z,26.80
2018-07-04T10:37:08.240Z,26.90
2018-07-04T10:42:07.656Z,26.90
2018-07-04T10:44:40.349Z,26.90
2018-07-04T10:47:12.847Z,26.90
2018-07-04T10:49:45.472Z,26.90
2018-07-04T10:52:18.016Z,26.90
2018-07-04T10:54:50.604Z,26.90
2018-07-04T10:57:23.123Z,26.90
2018-07-04T10:59:55.705Z,26.90
2018-07-04T11:02:28.371Z,26.90
2018-07-04T11:05:00.979Z,26.90
2018-07-04T11:07:33.540Z,27.00
2018-07-04T11:10:06.144Z,26.90
2018-07-04T11:12:38.773Z,27.00
2018-07-04T11:15:11.400Z,26.90
2018-07-04T11:17:43.976Z,26.90
2018-07-04T11:20:16.535Z,26.90
2018-07-04T11:22:49.220Z,26.90
2018-07-04T11:25:21.815Z,26.90
2018-07-04T11:27:54.424Z,26.90
2018-07-04T11:30:27.005Z,26.90
2018-07-04T11:32:59.661Z,26.90
2018-07-04T11:35:32.396Z,26.90
2018-07-04T11:38:04.986Z,26.90
2018-07-04T11:40:37.588Z,26.90
2018-07-04T11:43:10.219Z,26.90
2018-07-04T11:45:42.843Z,26.90
2018-07-04T11:48:09.208Z,26.90
2018-07-04T11:50:35.637Z,26.90
2018-07-04T11:53:02.026Z,26.90
2018-07-04T11:55:28.404Z,26.90
2018-07-04T11:57:54.793Z,26.90
2018-07-04T12:00:21.167Z,26.90
2018-07-04T12:02:47.567Z,26.90
2018-07-04T12:05:20.137Z,26.90
2018-07-04T12:07:46.527Z,26.90
2018-07-04T12:10:12.903Z,26.90
2018-07-04T12:12:39.299Z,26.90
2018-07-04T12:15:05.676Z,26.90
2018-07-04T12:17:32.060Z,26.90
2018-07-04T12:19:58.425Z,26.90
2018-07-04T12:22:24.815Z,26.90
2018-07-04T12:24:51.210Z,26.90
2018-07-04T12:27:17.616Z,26.90
2018-07-04T12:29:43.988Z,26.90
2018-07-04T12:32:10.391Z,26.90
2018-07-04T12:34:36.759Z,26.90
2018-07-04T12:37:03.147Z,26.90
2018-07-04T12:39:29.520Z,27.00
2018-07-04T12:41:55.922Z,27.00
2018-07-04T12:44:22.716Z,27.00
2018-07-04T12:46:49.124Z,27.00
2018-07-04T12:49:15.581Z,27.10
2018-07-04T12:51:41.982Z,27.10
2018-07-04T12:55:14.466Z,27.10
2018-07-04T12:57:47.368Z,27.00
2018-07-04T13:02:47.319Z,27.00
2018-07-04T13:05:19.893Z,27.00
2018-07-04T13:07:52.498Z,27.00
2018-07-04T13:10:25.131Z,27.00
2018-07-04T13:12:58.035Z,27.00
2018-07-04T13:15:30.699Z,26.90
2018-07-04T13:18:03.268Z,26.90
2018-07-04T13:20:35.920Z,26.90
2018-07-04T13:23:08.512Z,27.00
2018-07-04T13:25:41.123Z,27.00
2018-07-04T13:28:13.680Z,26.90
2018-07-04T13:30:46.264Z,26.90
2018-07-04T13:33:18.876Z,27.00
2018-07-04T13:35:51.605Z,27.00
2018-07-04T13:38:24.133Z,27.00
2018-07-04T13:40:56.680Z,27.00
2018-07-04T13:43:31.312Z,27.00
2018-07-04T13:46:03.861Z,26.90
2018-07-04T13:48:36.486Z,27.00
2018-07-04T13:51:09.085Z,26.90
2018-07-04T13:53:41.664Z,26.90
2018-07-04T13:56:14.279Z,26.90
2018-07-04T13:58:46.825Z,26.90
2018-07-04T14:01:19.377Z,26.90
2018-07-04T14:03:52.063Z,27.00
2018-07-04T14:06:24.560Z,27.00
2018-07-04T14:08:57.628Z,27.00
2018-07-04T14:11:30.209Z,27.00
2018-07-04T14:14:02.780Z,27.00
2018-07-04T14:16:36.196Z,27.00
2018-07-04T14:19:08.784Z,27.00
2018-07-04T14:24:08.508Z,27.00
2018-07-04T14:26:41.121Z,27.10
2018-07-04T14:29:13.844Z,27.10
2018-07-04T14:31:46.294Z,27.10
2018-07-04T14:34:18.856Z,27.10
2018-07-04T14:36:51.411Z,27.10
2018-07-04T14:39:24.101Z,27.10
2018-07-04T14:41:56.679Z,27.10
2018-07-04T14:44:29.284Z,27.10
2018-07-04T14:47:02.098Z,27.10
2018-07-04T14:52:01.558Z,27.10
2018-07-04T14:54:34.129Z,27.10
2018-07-04T14:57:06.713Z,27.10
2018-07-04T14:59:39.347Z,27.20
2018-07-04T15:02:12.077Z,27.10
2018-07-04T15:04:44.675Z,27.20
2018-07-04T15:07:17.254Z,27.20
2018-07-04T15:09:49.896Z,27.20
2018-07-04T15:12:22.683Z,27.20
2018-07-04T15:14:56.156Z,27.20
2018-07-04T15:17:29.146Z,27.20
2018-07-04T15:20:02.050Z,27.20
2018-07-04T15:22:34.559Z,27.20
2018-07-04T15:25:07.178Z,27.20
2018-07-04T15:27:39.834Z,27.20
2018-07-04T15:30:12.380Z,27.20
2018-07-04T15:32:45.040Z,27.20
2018-07-04T15:35:17.510Z,27.20
2018-07-04T15:37:49.989Z,27.30
2018-07-04T15:40:22.618Z,27.30
2018-07-04T15:42:55.248Z,27.30
2018-07-04T15:45:27.847Z,27.30
2018-07-04T15:48:00.587Z,27.40
2018-07-04T15:50:33.208Z,27.40
2018-07-04T15:53:05.937Z,27.30
2018-07-04T16:00:32.298Z,27.30
2018-07-04T16:05:31.709Z,27.30
2018-07-04T16:08:04.317Z,27.20
2018-07-04T16:10:36.880Z,27.20
2018-07-04T16:13:09.480Z,27.20
2018-07-04T16:15:42.117Z,27.20
2018-07-04T16:18:14.645Z,27.20
2018-07-04T16:20:47.197Z,27.20
2018-07-04T16:23:19.808Z,27.20
2018-07-04T16:25:52.404Z,27.20
2018-07-04T16:28:25.040Z,27.20
2018-07-04T16:30:57.668Z,27.20
2018-07-04T16:33:30.250Z,27.20
2018-07-04T16:36:02.797Z,27.20
2018-07-04T16:38:35.507Z,27.20
2018-07-04T16:41:07.924Z,27.20
2018-07-04T16:43:40.475Z,27.20
2018-07-04T16:46:13.216Z,27.20
2018-07-04T16:48:45.808Z,27.20
2018-07-04T16:51:18.349Z,27.20
2018-07-04T16:53:50.941Z,27.20
2018-07-04T16:56:23.518Z,27.20
2018-07-04T16:58:56.096Z,27.20
2018-07-04T17:01:28.788Z,27.20
2018-07-04T17:04:01.538Z,27.20
2018-07-04T17:06:34.051Z,27.20
2018-07-04T17:09:06.643Z,27.20
2018-07-04T17:11:39.216Z,27.20
2018-07-04T17:14:11.876Z,27.20
2018-07-04T17:16:45.543Z,27.20
2018-07-04T17:19:18.115Z,27.20
2018-07-04T17:21:50.696Z,27.20
2018-07-04T17:24:23.268Z,27.20
2018-07-04T17:26:55.888Z,27.20
2018-07-04T17:29:28.455Z,27.20
2018-07-04T17:32:01.017Z,27.20
2018-07-04T17:34:33.608Z,27.20
2018-07-04T17:37:06.256Z,27.20
2018-07-04T17:39:38.914Z,27.20
2018-07-04T17:42:11.455Z,27.20
2018-07-04T17:47:10.815Z,27.20
2018-07-04T17:49:43.511Z,27.20
2018-07-04T17:52:15.938Z,27.20
2018-07-04T17:54:48.571Z,27.20
2018-07-04T17:57:21.025Z,27.20
2018-07-04T17:59:53.793Z,27.20
2018-07-04T18:02:26.235Z,27.20
2018-07-04T18:04:58.910Z,27.20
2018-07-04T18:07:31.454Z,27.20
2018-07-04T18:10:04.375Z,27.20
2018-07-04T18:12:36.929Z,27.20
2018-07-04T18:15:09.745Z,27.20
2018-07-04T18:17:42.266Z,27.20
2018-07-04T18:20:14.837Z,27.20
2018-07-04T18:22:47.371Z,27.20
2018-07-04T18:25:20.179Z,27.20
2018-07-04T18:27:52.955Z,27.20
2018-07-04T18:30:25.607Z,27.20
2018-07-04T18:32:58.140Z,27.20
2018-07-04T18:35:30.775Z,27.20
2018-07-04T18:38:03.984Z,27.20
2018-07-04T18:40:36.660Z,27.20
2018-07-04T18:43:09.955Z,27.20
2018-07-04T18:45:43.183Z,27.30
2018-07-04T18:48:15.727Z,27.30
2018-07-04T18:50:48.815Z,27.30
2018-07-04T18:53:21.863Z,27.30
2018-07-04T18:58:21.487Z,27.30
2018-07-04T19:00:54.135Z,27.30
2018-07-04T19:03:27.024Z,27.40
2018-07-04T19:06:00.077Z,27.40
2018-07-04T19:08:32.919Z,27.40
2018-07-04T19:11:06.043Z,27.40
2018-07-04T19:13:38.661Z,27.40
2018-07-04T19:16:11.264Z,27.40
2018-07-04T19:18:44.246Z,27.40
2018-07-04T19:21:17.194Z,27.40
2018-07-04T19:23:50.466Z,27.40
2018-07-04T19:26:23.445Z,27.40
2018-07-04T19:28:56.335Z,27.40
2018-07-04T19:31:29.133Z,27.40
2018-07-04T19:34:03.372Z,27.40
2018-07-04T19:36:36.192Z,27.40
2018-07-04T19:39:08.874Z,27.40
2018-07-04T19:41:42.213Z,27.40
2018-07-04T19:44:14.764Z,27.40
2018-07-04T19:46:47.424Z,27.40
2018-07-04T19:49:20.289Z,27.40
2018-07-04T19:51:53.439Z,27.40
2018-07-04T19:54:26.417Z,27.40
2018-07-04T19:56:59.372Z,27.40
2018-07-04T19:59:31.970Z,27.40
2018-07-04T20:02:04.617Z,27.40
2018-07-04T20:04:37.085Z,27.40
2018-07-04T20:07:09.924Z,27.40
2018-07-04T20:09:43.099Z,27.50
2018-07-04T20:12:15.831Z,27.40
2018-07-04T20:17:15.983Z,27.40
2018-07-04T20:19:48.458Z,27.40
2018-07-04T20:22:21.039Z,27.40
2018-07-04T20:24:53.628Z,27.50
2018-07-04T20:27:26.283Z,27.40
2018-07-04T20:29:58.804Z,27.50
2018-07-04T20:32:31.488Z,27.40
2018-07-04T20:35:04.063Z,27.40
2018-07-04T20:37:36.676Z,27.50
2018-07-04T20:40:09.227Z,27.40
2018-07-04T20:42:41.823Z,27.40
2018-07-04T20:45:14.369Z,27.40
2018-07-04T20:47:47.008Z,27.50
2018-07-04T20:50:19.552Z,27.50
2018-07-04T20:52:52.235Z,27.50
2018-07-04T20:55:24.838Z,27.40
2018-07-04T20:57:57.456Z,27.40
2018-07-04T21:00:30.022Z,27.50
2018-07-04T21:03:02.712Z,27.50
2018-07-04T21:05:35.262Z,27.50
2018-07-04T21:08:07.791Z,27.40
2018-07-04T21:10:40.379Z,27.40
2018-07-04T21:13:13.039Z,27.40
2018-07-04T21:15:45.672Z,27.40
2018-07-04T21:18:18.356Z,27.40
2018-07-04T21:20:50.815Z,27.40
2018-07-04T21:23:23.324Z,27.40
2018-07-04T21:25:55.888Z,27.40
2018-07-04T21:28:28.523Z,27.40
2018-07-04T21:31:01.157Z,27.40
2018-07-04T21:33:33.704Z,27.40
2018-07-04T21:36:06.344Z,27.40
2018-07-04T21:38:38.930Z,27.40
2018-07-04T21:43:38.640Z,27.30
2018-07-04T21:46:11.344Z,27.40
2018-07-04T21:48:43.924Z,27.40
2018-07-04T21:51:16.577Z,27.30
2018-07-04T21:53:49.101Z,27.30
2018-07-04T21:56:21.672Z,27.30
2018-07-04T21:58:54.283Z,27.30
2018-07-04T22:01:26.875Z,27.30
2018-07-04T22:04:00.234Z,27.30
2018-07-04T22:06:32.661Z,27.30
2018-07-04T22:09:05.276Z,27.30
2018-07-04T22:11:37.880Z,27.20
2018-07-04T22:14:10.533Z,27.30
2018-07-04T22:16:43.135Z,27.20
2018-07-04T22:19:15.754Z,27.30
2018-07-04T22:21:48.400Z,27.20
2018-07-04T22:24:20.994Z,27.20
2018-07-04T22:26:53.638Z,27.20
2018-07-04T22:29:26.197Z,27.20
2018-07-04T22:31:58.772Z,27.20
2018-07-04T22:34:31.399Z,27.20
2018-07-04T22:37:04.056Z,27.20
2018-07-04T22:39:36.647Z,27.20
2018-07-04T22:42:09.314Z,27.20
2018-07-04T22:44:41.963Z,27.20
2018-07-04T22:47:14.588Z,27.20
2018-07-04T22:49:47.171Z,27.20
2018-07-04T22:52:19.740Z,27.20
2018-07-04T22:54:52.506Z,27.20
2018-07-04T22:57:24.924Z,27.20
2018-07-04T22:59:57.446Z,27.20
2018-07-04T23:02:30.036Z,27.20
2018-07-04T23:05:02.600Z,27.20
2018-07-04T23:07:35.129Z,27.20
2018-07-04T23:10:07.704Z,27.10
2018-07-04T23:12:40.474Z,27.10
2018-07-04T23:15:12.955Z,27.10
2018-07-04T23:17:45.500Z,27.10
2018-07-04T23:20:18.089Z,27.10
2018-07-04T23:22:50.648Z,27.10
2018-07-04T23:25:23.252Z,27.10
2018-07-04T23:27:55.800Z,27.10
2018-07-04T23:30:28.508Z,27.10
2018-07-04T23:35:27.745Z,27.10
2018-07-04T23:38:00.237Z,27.10
2018-07-04T23:40:32.929Z,27.10
2018-07-04T23:43:05.527Z,27.10
2018-07-04T23:45:38.211Z,27.10
2018-07-04T23:48:10.808Z,27.10
2018-07-04T23:50:43.452Z,27.10
2018-07-04T23:53:16.048Z,27.10
2018-07-04T23:55:48.644Z,27.10
2018-07-04T23:58:21.182Z,27.10
